Latest Weather Observations for Fort Denison

IDN60901

Issued at 10:21 am EDT Thursday 9 February 2023 (issued every 10 minutes, with the page automatically refreshed every 10 minutes)

About weather observations | Map of Sydney area stations | Latest observations for Sydney area | Other Formats
Station Details ID: 066022 Name: FORT DENISON Lat: -33.86 Lon: 151.23 Height: 5.0 m
Data from the previous 72 hours. | See also: Recent months for locations in New South Wales
Date/Time
EDT
Temp
°C
App
Temp
°C
Dew
Point
°C
Rel
Hum
%
Delta-T
°C
Wind Press
QNH
hPa
Press
MSL
hPa
Rain since
9am
mm
Dir  Spd
km/h
Gust
km/h
Spd
kts
Gust
kts
09/10:00am - - - - - ENE 24 32 13 17 - - -
09/09:30am - - - - - ENE 22 30 12 16 - - -
09/09:00am - - - - - ENE 19 24 10 13 - - -
09/08:30am - - - - - ENE 13 20 7 11 - - -
09/08:00am - - - - - ENE 7 13 4 7 - - -
09/07:30am - - - - - E 13 17 7 9 - - -
09/07:00am - - - - - ENE 13 17 7 9 - - -
09/06:30am - - - - - NE 15 22 8 12 - - -
09/06:00am - - - - - ENE 13 19 7 10 - - -
09/05:30am - - - - - E 22 30 12 16 - - -
09/05:00am - - - - - ENE 9 20 5 11 - - -
09/04:30am - - - - - NE 9 22 5 12 - - -
09/04:00am - - - - - NNE 17 24 9 13 - - -
09/03:30am - - - - - ENE 20 32 11 17 - - -
09/03:00am - - - - - ENE 26 33 14 18 - - -
09/02:30am - - - - - ENE 24 32 13 17 - - -
09/02:00am - - - - - NNE 20 35 11 19 - - -
09/01:30am - - - - - N 26 35 14 19 - - -
09/01:00am - - - - - ENE 30 39 16 21 - - -
09/12:30am - - - - - ENE 30 39 16 21 - - -
09/12:00am - - - - - E 26 41 14 22 - - -
 
Date/Time
EDT
Temp
°C
App
Temp
°C
Dew
Point
°C
Rel
Hum
%
Delta-T
°C
Wind Press
QNH
hPa
Press
MSL
hPa
Rain since
9am
mm
Dir  Spd
km/h
Gust
km/h
Spd
kts
Gust
kts
08/11:30pm - - - - - E 26 39 14 21 - - -
08/11:00pm - - - - - E 32 37 17 20 - - -
08/10:30pm - - - - - E 32 35 17 19 - - -
08/10:00pm - - - - - E 30 37 16 20 - - -
08/09:30pm - - - - - E 30 37 16 20 - - -
08/09:00pm - - - - - E 33 41 18 22 - - -
08/08:30pm - - - - - E 30 41 16 22 - - -
08/08:00pm - - - - - E 28 33 15 18 - - -
08/07:30pm - - - - - E 26 30 14 16 - - -
08/07:00pm - - - - - E 28 37 15 20 - - -
08/06:30pm - - - - - E 28 35 15 19 - - -
08/06:00pm - - - - - ESE 26 33 14 18 - - -
08/05:30pm - - - - - E 26 37 14 20 - - -
08/05:00pm - - - - - ESE 26 32 14 17 - - -
08/04:30pm - - - - - ESE 22 30 12 16 - - -
08/04:00pm - - - - - ESE 19 24 10 13 - - -
08/03:30pm - - - - - ESE 19 24 10 13 - - -
08/03:00pm - - - - - ESE 24 30 13 16 - - -
08/02:30pm - - - - - ESE 19 24 10 13 - - -
08/02:00pm - - - - - E 15 20 8 11 - - -
08/01:30pm - - - - - E 17 26 9 14 - - -
08/01:00pm - - - - - E 15 19 8 10 - - -
08/12:30pm - - - - - E 17 20 9 11 - - -
08/12:00pm - - - - - E 19 20 10 11 - - -
08/11:30am - - - - - E 19 22 10 12 - - -
08/11:00am - - - - - E 17 22 9 12 - - -
08/10:30am - - - - - ESE 4 11 2 6 - - -
08/10:00am - - - - - WSW 7 11 4 6 - - -
08/09:30am - - - - - WSW 2 6 1 3 - - -
08/09:00am - - - - - WNW 7 9 4 5 - - -
08/08:30am - - - - - WNW 9 9 5 5 - - -
08/08:00am - - - - - WNW 9 11 5 6 - - -
08/07:30am - - - - - WNW 6 9 3 5 - - -
08/07:00am - - - - - N 6 7 3 4 - - -
08/06:30am - - - - - NNE 4 6 2 3 - - -
08/06:00am - - - - - NE 6 9 3 5 - - -
08/05:30am - - - - - NNE 6 9 3 5 - - -
08/05:00am - - - - - ENE 9 11 5 6 - - -
08/04:30am - - - - - ENE 9 15 5 8 - - -
08/04:00am - - - - - ENE 11 15 6 8 - - -
08/03:30am - - - - - ENE 11 19 6 10 - - -
08/03:00am - - - - - ENE 11 15 6 8 - - -
08/02:30am - - - - - ENE 11 15 6 8 - - -
08/02:00am - - - - - ENE 15 19 8 10 - - -
08/01:30am - - - - - ENE 13 17 7 9 - - -
08/01:00am - - - - - ENE 13 20 7 11 - - -
08/12:30am - - - - - ENE 15 22 8 12 - - -
08/12:00am - - - - - ENE 13 19 7 10 - - -
 
Date/Time
EDT
Temp
°C
App
Temp
°C
Dew
Point
°C
Rel
Hum
%
Delta-T
°C
Wind Press
QNH
hPa
Press
MSL
hPa
Rain since
9am
mm
Dir  Spd
km/h
Gust
km/h
Spd
kts
Gust
kts
07/11:30pm - - - - - E 17 19 9 10 - - -
07/11:00pm - - - - - E 15 20 8 11 - - -
07/10:30pm - - - - - E 17 22 9 12 - - -
07/10:00pm - - - - - ENE 19 26 10 14 - - -
07/09:30pm - - - - - ENE 15 22 8 12 - - -
07/09:00pm - - - - - ENE 17 22 9 12 - - -
07/08:30pm - - - - - E 15 22 8 12 - - -
07/08:00pm - - - - - E 19 26 10 14 - - -
07/07:30pm - - - - - E 19 24 10 13 - - -
07/07:00pm - - - - - E 20 24 11 13 - - -
07/06:30pm - - - - - E 20 26 11 14 - - -
07/06:00pm - - - - - E 22 26 12 14 - - -
07/05:30pm - - - - - E 20 26 11 14 - - -
07/05:00pm - - - - - E 20 26 11 14 - - -
07/04:30pm - - - - - E 19 28 10 15 - - -
07/04:00pm - - - - - E 24 28 13 15 - - -
07/03:30pm - - - - - E 20 26 11 14 - - -
07/03:00pm - - - - - E 20 26 11 14 - - -
07/02:30pm - - - - - E 20 26 11 14 - - -
07/02:00pm - - - - - E 22 26 12 14 - - -
07/01:30pm - - - - - E 22 28 12 15 - - -
07/01:00pm - - - - - E 20 26 11 14 - - -
07/12:30pm - - - - - E 20 26 11 14 - - -
07/12:00pm - - - - - E 20 24 11 13 - - -
07/11:30am - - - - - E 20 26 11 14 - - -
07/11:00am - - - - - ENE 15 22 8 12 - - -
07/10:30am - - - - - ENE 13 19 7 10 - - -
07/10:00am - - - - - NE 9 17 5 9 - - -
07/09:30am - - - - - ENE 7 13 4 7 - - -
07/09:00am - - - - - NNE 11 15 6 8 - - -
07/08:30am - - - - - N 6 9 3 5 - - -
07/08:00am - - - - - WNW 9 11 5 6 - - -
07/07:30am - - - - - WNW 9 9 5 5 - - -
07/07:00am - - - - - WNW 7 9 4 5 - - -
07/06:30am - - - - - SW 2 4 1 2 - - -
07/06:00am - - - - - CALM 0 4 0 2 - - -
07/05:30am - - - - - NE 4 6 2 3 - - -
07/05:00am - - - - - NNE 2 6 1 3 - - -
07/04:30am - - - - - ENE 7 11 4 6 - - -
07/04:00am - - - - - ENE 9 11 5 6 - - -
07/03:30am - - - - - E 13 17 7 9 - - -
07/03:00am - - - - - E 9 11 5 6 - - -
07/02:30am - - - - - ENE 13 17 7 9 - - -
07/02:00am - - - - - ENE 13 17 7 9 - - -
07/01:30am - - - - - ENE 11 17 6 9 - - -
07/01:00am - - - - - ENE 17 20 9 11 - - -
07/12:30am - - - - - ENE 15 19 8 10 - - -
07/12:00am - - - - - ENE 15 22 8 12 - - -
 
Date/Time
EDT
Temp
°C
App
Temp
°C
Dew
Point
°C
Rel
Hum
%
Delta-T
°C
Wind Press
QNH
hPa
Press
MSL
hPa
Rain since
9am
mm
Dir  Spd
km/h
Gust
km/h
Spd
kts
Gust
kts
06/11:30pm - - - - - ENE 15 20 8 11 - - -
06/11:00pm - - - - - ENE 13 19 7 10 - - -
06/10:30pm - - - - - ENE 17 22 9 12 - - -
06/10:00pm - - - - - ENE 19 24 10 13 - - -
06/09:30pm - - - - - ENE 24 32 13 17 - - -
06/09:00pm - - - - - ENE 20 32 11 17 - - -
06/08:30pm - - - - - ENE 20 28 11 15 - - -
06/08:00pm - - - - - ENE 20 30 11 16 - - -
06/07:30pm - - - - - ENE 26 37 14 20 - - -
06/07:00pm - - - - - ENE 28 39 15 21 - - -
06/06:30pm - - - - - ENE 28 41 15 22 - - -
06/06:00pm - - - - - ENE 24 41 13 22 - - -
06/05:30pm - - - - - ENE 30 43 16 23 - - -
06/05:00pm - - - - - ENE 30 41 16 22 - - -
06/04:30pm - - - - - ENE 32 41 17 22 - - -
06/04:00pm - - - - - E 32 37 17 20 - - -
06/03:30pm - - - - - E 30 37 16 20 - - -
06/03:00pm - - - - - E 30 41 16 22 - - -
06/02:30pm - - - - - E 30 35 16 19 - - -
06/02:00pm - - - - - ENE 32 37 17 20 - - -
06/01:30pm - - - - - E 30 37 16 20 - - -
06/01:00pm - - - - - ENE 30 35 16 19 - - -
06/12:30pm - - - - - E 28 33 15 18 - - -
06/12:00pm - - - - - E 26 32 14 17 - - -
06/11:30am - - - - - E 24 30 13 16 - - -
06/11:00am - - - - - NE 19 28 10 15 - - -
06/10:30am - - - - - NE 19 26 10 14 - - -

Latest Capital City Observations: Canberra | Sydney | Melbourne | Brisbane | Adelaide | Perth | Hobart | Darwin

Other formats

Comma delimited format used in spreadsheet applications
http://www.bom.gov.au/fwo/IDN60901/IDN60901.94769.axf

JavaScript Object Notation format (JSON) in row-major order
http://www.bom.gov.au/fwo/IDN60901/IDN60901.94769.json

Data quality

Most of these data are generated automatically and are frequently updated. Quality checks on data are not normally performed. It is possible for incorrect values to appear. Refer to information at About Latest Weather Observations and please check the disclaimer before using these data.